• Join FlightAware (Why Join?)
  • Login
  • US Flag 
04:53AM EDT


 

Airport Tracker/Info


-or-


 

Live Flight TrackerFlight Track Log ✈ AFL150 ✈ 22-Dec-2013 ✈ UUEE / SVO - MUHA / HAV

Flight Track Log - Related Links

Times and Time Zones

All times are in EST time to prevent confusion due to time zone crossing. See the AFL150 flight status page for this flight to view local times or setup timezone preferences in your user account.

Time Position Orientation Groundspeed Altitude Reporting Facility
EST Latitude Longitude Course Direction KTS MPH feet Rate Location/Type
05:47AM 56.0565 37.1496 307° West  Level Estimated
05:48AM 56.1245 36.9853 307° West  Level Estimated
05:49AM 56.1922 36.8204 306° West  Level Estimated
05:50AM 56.2596 36.6550 306° West  Level Estimated
05:51AM 56.3269 36.4889 306° West  Level Estimated
05:52AM 56.3939 36.3223 306° West  Level Estimated
05:53AM 56.4607 36.1551 306° West  Level Estimated
05:54AM 56.5273 35.9873 306° West  Level Estimated
05:55AM 56.5936 35.8189 306° West  Level Estimated
05:56AM 56.6598 35.6500 305° West  Level Estimated
05:57AM 56.7257 35.4804 305° West  Level Estimated
05:58AM 56.7913 35.3102 305° West  Level Estimated
05:59AM 56.8568 35.1395 305° West  Level Estimated
06:00AM 56.9220 34.9681 305° West  Level Estimated
06:01AM 56.9869 34.7962 305° West  Level Estimated
06:02AM 57.0516 34.6236 305° West  Level Estimated
06:03AM 57.1161 34.4505 304° West  Level Estimated
06:04AM 57.1804 34.2767 304° West  Level Estimated
06:05AM 57.2444 34.1023 304° West  Level Estimated
06:06AM 57.3073 33.9297 304° West  Level Estimated
06:07AM 57.3700 33.7564 304° West  Level Estimated
06:08AM 57.4325 33.5825 304° West  Level Estimated
06:09AM 57.4947 33.4081 304° West  Level Estimated
06:10AM 57.5567 33.2330 303° West  Level Estimated
06:11AM 57.6184 33.0574 303° West  Level Estimated
06:12AM 57.6799 32.8812 303° West  Level Estimated
06:13AM 57.7411 32.7043 303° West  Level Estimated
06:14AM 57.8021 32.5269 303° West  Level Estimated
06:15AM 57.8629 32.3488 303° West  Level Estimated
06:16AM 57.9234 32.1702 303° West  Level Estimated
06:17AM 57.9836 31.9910 302° West  Level Estimated
06:18AM 58.0436 31.8111 302° West  Level Estimated
06:19AM 58.1034 31.6307 302° West  Level Estimated
06:20AM 58.1628 31.4496 302° West  Level Estimated
06:21AM 58.2221 31.2680 302° West  Level Estimated
06:22AM 58.2811 31.0857 302° West  Level Estimated
06:23AM 58.3398 30.9028 302° West  Level Estimated
06:24AM 58.3982 30.7194 301° West  Level Estimated
06:25AM 58.4564 30.5353 301° West  Level Estimated
06:26AM 58.5143 30.3506 301° West  Level Estimated
06:27AM 58.5719 30.1653 301° West  Level Estimated
06:28AM 58.6293 29.9794 301° West  Level Estimated
06:29AM 58.6864 29.7929 301° West  Level Estimated
06:30AM 58.7433 29.6057 300° West  Level Estimated
06:31AM 58.7999 29.4180 300° West  Level Estimated
06:32AM 58.8562 29.2297 300° West  Level Estimated
06:33AM 58.9122 29.0407 300° West  Level Estimated
06:34AM 58.9679 28.8511 300° West  Level Estimated
06:35AM 59.0234 28.6609 300° West  Level Estimated
06:36AM 59.0786 28.4701 299° West  Level Estimated
06:37AM 59.1335 28.2787 299° West  Level Estimated
06:38AM 59.1881 28.0867 299° West  Level Estimated
06:39AM 59.2425 27.8940 299° West  Level Estimated
06:40AM 59.2965 27.7008 299° West  Level Estimated
06:41AM 59.3503 27.5069 299° West  Level Estimated
06:42AM 59.4038 27.3124 298° West  Level Estimated
06:43AM 59.4570 27.1173 298° West  Level Estimated
06:44AM 59.5099 26.9216 298° West  Level Estimated
06:45AM 59.5625 26.7253 298° West  Level Estimated
06:46AM 59.6148 26.5284 298° West  Level Estimated
06:47AM 59.6668 26.3308 298° West  Level Estimated
06:48AM 59.7185 26.1326 297° West  Level Estimated
06:49AM 59.7699 25.9339 297° West  Level Estimated
06:50AM 59.8210 25.7345 297° West  Level Estimated
06:51AM 59.8719 25.5345 297° West  Level Estimated
06:52AM 59.9224 25.3339 297° West  Level Estimated
06:53AM 59.9726 25.1327 297° West  Level Estimated
06:54AM 60.0225 24.9309 296° West  Level Estimated
06:55AM 60.0721 24.7284 296° West  Level Estimated
06:56AM 60.1213 24.5254 296° West  Level Estimated
06:57AM 60.1703 24.3218 296° West  Level Estimated
06:58AM 60.2190 24.1175 296° West  Level Estimated
06:59AM 60.2673 23.9126 296° West  Level Estimated
07:00AM 60.3153 23.7072 295° West  Level Estimated
07:01AM 60.3630 23.5011 295° West  Level Estimated
07:02AM 60.4104 23.2945 295° West  Level Estimated
07:03AM 60.4575 23.0872 295° West  Level Estimated
07:04AM 60.5042 22.8793 295° West  Level Estimated
07:05AM 60.5506 22.6708 294° West  Level Estimated
07:06AM 60.5967 22.4618 294° West  Level Estimated
07:07AM 60.6425 22.2521 294° West  Level Estimated
07:08AM 60.6879 22.0419 294° West  Level Estimated
07:09AM 60.7330 21.8310 294° West  Level Estimated
07:10AM 60.7778 21.6196 294° West  Level Estimated
07:11AM 60.8222 21.4076 293° West  Level Estimated
07:12AM 60.8663 21.1950 293° West  Level Estimated
07:13AM 60.9101 20.9818 293° West  Level Estimated
07:14AM 60.9535 20.7680 293° West  Level Estimated
07:15AM 60.9966 20.5536 293° West  Level Estimated
07:16AM 61.0394 20.3387 292° West  Level Estimated
07:17AM 61.0818 20.1231 292° West  Level Estimated
07:18AM 61.1239 19.9070 292° West  Level Estimated
07:19AM 61.1656 19.6904 292° West  Level Estimated
07:20AM 61.2070 19.4731 292° West  Level Estimated
07:21AM 61.2480 19.2553 291° West  Level Estimated
07:22AM 61.2886 19.0369 291° West  Level Estimated
07:23AM 61.3290 18.8180 291° West  Level Estimated
07:24AM 61.3689 18.5985 291° West  Level Estimated
07:25AM 61.4085 18.3784 291° West  Level Estimated
07:26AM 61.4478 18.1578 291° West  Level Estimated
07:27AM 61.4867 17.9366 290° West  Level Estimated
07:28AM 61.5252 17.7149 290° West  Level Estimated
07:29AM 61.5634 17.4926 290° West  Level Estimated
07:30AM 61.6012 17.2698 290° West  Level Estimated
07:31AM 61.6387 17.0464 290° West  Level Estimated
07:32AM 61.6758 16.8225 289° West  Level Estimated
07:33AM 61.7125 16.5981 289° West  Level Estimated
07:34AM 61.7489 16.3731 289° West  Level Estimated
07:35AM 61.7849 16.1476 289° West  Level Estimated
07:36AM 61.8205 15.9216 289° West  Level Estimated
07:37AM 61.8557 15.6951 288° West  Level Estimated
07:38AM 61.8906 15.4680 288° West  Level Estimated
07:39AM 61.9251 15.2404 288° West  Level Estimated
07:40AM 61.9592 15.0123 288° West  Level Estimated
07:41AM 61.9929 14.7837 288° West  Level Estimated
07:42AM 62.0263 14.5546 287° West  Level Estimated
07:43AM 62.0593 14.3250 287° West  Level Estimated
07:44AM 62.0919 14.0949 287° West  Level Estimated
07:45AM 62.1241 13.8643 287° West  Level Estimated
07:46AM 62.1559 13.6333 287° West  Level Estimated
07:47AM 62.1874 13.4017 286° West  Level Estimated
07:48AM 62.2184 13.1697 286° West  Level Estimated
07:49AM 62.2491 12.9371 286° West  Level Estimated
07:50AM 62.2794 12.7042 286° West  Level Estimated
07:51AM 62.3093 12.4707 286° West  Level Estimated
07:52AM 62.3388 12.2368 285° West  Level Estimated
07:53AM 62.3679 12.0024 285° West  Level Estimated
07:54AM 62.3966 11.7676 285° West  Level Estimated
07:55AM 62.4249 11.5323 285° West  Level Estimated
07:56AM 62.4528 11.2966 284° West  Level Estimated
07:57AM 62.4804 11.0604 284° West  Level Estimated
07:58AM 62.5075 10.8238 284° West  Level Estimated
07:59AM 62.5342 10.5868 284° West  Level Estimated
08:00AM 62.5605 10.3494 284° West  Level Estimated
08:01AM 62.5864 10.1116 283° West  Level Estimated
08:02AM 62.6119 9.8733 283° West  Level Estimated
08:03AM 62.6371 9.6346 283° West  Level Estimated
08:04AM 62.6618 9.3955 283° West  Level Estimated
08:05AM 62.6861 9.1561 283° West  Level Estimated
08:06AM 62.7099 8.9162 282° West  Level Estimated
08:07AM 62.7334 8.6760 282° West  Level Estimated
08:08AM 62.7565 8.4354 282° West  Level Estimated
08:09AM 62.7791 8.1944 282° West  Level Estimated
08:10AM 62.8013 7.9530 281° West  Level Estimated
08:11AM 62.8232 7.7113 281° West  Level Estimated
08:12AM 62.8446 7.4692 281° West  Level Estimated
08:13AM 62.8656 7.2268 281° West  Level Estimated
08:14AM 62.8862 6.9840 281° West  Level Estimated
08:15AM 62.9063 6.7409 280° West  Level Estimated
08:16AM 62.9260 6.4974 280° West  Level Estimated
08:17AM 62.9454 6.2537 280° West  Level Estimated
08:18AM 62.9643 6.0096 280° West  Level Estimated
08:19AM 62.9827 5.7652 280° West  Level Estimated
08:20AM 63.0008 5.5205 279° West  Level Estimated
08:21AM 63.0184 5.2755 279° West  Level Estimated
08:22AM 63.0356 5.0302 279° West  Level Estimated
08:23AM 63.0524 4.7846 279° West  Level Estimated
08:24AM 63.0688 4.5388 278° West  Level Estimated
08:25AM 63.0847 4.2926 278° West  Level Estimated
08:26AM 63.1002 4.0462 278° West  Level Estimated
08:27AM 63.1153 3.7996 278° West  Level Estimated
08:28AM 63.1299 3.5527 278° West  Level Estimated
08:29AM 63.1441 3.3055 277° West  Level Estimated
08:30AM 63.1579 3.0581 277° West  Level Estimated
08:31AM 63.1713 2.8105 277° West  Level Estimated
08:32AM 63.1842 2.5626 277° West  Level Estimated
08:33AM 63.1967 2.3145 276° West  Level Estimated
08:34AM 63.2088 2.0663 276° West  Level Estimated
08:35AM 63.2204 1.8178 276° West  Level Estimated
08:36AM 63.2316 1.5691 276° West  Level Estimated
08:37AM 63.2424 1.3202 276° West  Level Estimated
08:38AM 63.2527 1.0712 275° West  Level Estimated
08:39AM 63.2626 0.8220 275° West  Level Estimated
08:40AM 63.2720 0.5726 275° West  Level Estimated
08:41AM 63.2810 0.3230 275° West  Level Estimated
08:42AM 63.2896 0.0733 274° West  Level Estimated
08:43AM 63.2977 -0.1765 274° West  Level Estimated
08:44AM 63.3055 -0.4265 274° West  Level Estimated
08:45AM 63.3127 -0.6766 274° West  Level Estimated
08:46AM 63.3195 -0.9269 274° West  Level Estimated
08:47AM 63.3259 -1.1772 273° West  Level Estimated
08:48AM 63.3319 -1.4277 273° West  Level Estimated
08:49AM 63.3374 -1.6782 273° West  Level Estimated
08:50AM 63.3425 -1.9289 273° West  Level Estimated
08:51AM 63.3471 -2.1796 272° West  Level Estimated
08:52AM 63.3513 -2.4304 272° West  Level Estimated
08:53AM 63.3550 -2.6813 272° West  Level Estimated
08:54AM 63.3583 -2.9323 272° West  Level Estimated
08:55AM 63.3612 -3.1833 272° West  Level Estimated
08:56AM 63.3637 -3.4343 271° West  Level Estimated
08:57AM 63.3656 -3.6854 271° West  Level Estimated
08:58AM 63.3672 -3.9365 271° West  Level Estimated
08:59AM 63.3683 -4.1876 271° West  Level Estimated
09:00AM 63.3690 -4.4388 270° West  Level Estimated
09:01AM 63.3692 -4.6899 270° West  Level Estimated
09:02AM 63.3690 -4.9411 270° West  Level Estimated
09:03AM 63.3683 -5.1922 270° West  Level Estimated
09:04AM 63.3672 -5.4434 270° West  Level Estimated
09:05AM 63.3657 -5.6945 269° West  Level Estimated
09:06AM 63.3637 -5.9456 269° West  Level Estimated
09:07AM 63.3613 -6.1966 269° West  Level Estimated
09:08AM 63.3584 -6.4476 269° West  Level Estimated
09:09AM 63.3551 -6.6986 268° West  Level Estimated
09:10AM 63.3514 -6.9495 268° West  Level Estimated
09:11AM 63.3472 -7.2003 268° West  Level Estimated
09:12AM 63.3426 -7.4510 268° West  Level Estimated
09:13AM 63.3375 -7.7017 268° West  Level Estimated
09:14AM 63.3320 -7.9522 267° West  Level Estimated
09:15AM 63.3261 -8.2027 267° West  Level Estimated
09:16AM 63.3197 -8.4530 267° West  Level Estimated
09:17AM 63.3129 -8.7033 267° West  Level Estimated
09:18AM 63.3056 -8.9534 266° West  Level Estimated
09:19AM 63.2979 -9.2034 266° West  Level Estimated
09:20AM 63.2898 -9.4532 266° West  Level Estimated
09:21AM 63.2812 -9.7029 266° West  Level Estimated
09:22AM 63.2722 -9.9525 266° West  Level Estimated
09:23AM 63.2627 -10.2019 265° West  Level Estimated
09:24AM 63.2528 -10.4511 265° West  Level Estimated
09:25AM 63.2425 -10.7002 265° West  Level Estimated
09:26AM 63.2318 -10.9490 265° West  Level Estimated
09:27AM 63.2206 -11.1977 264° West  Level Estimated
09:28AM 63.2090 -11.4462 264° West  Level Estimated
09:29AM 63.1969 -11.6945 264° West  Level Estimated
09:30AM 63.1844 -11.9425 264° West  Level Estimated
09:31AM 63.1715 -12.1904 264° West  Level Estimated
09:32AM 63.1582 -12.4380 263° West  Level Estimated
09:33AM 63.1444 -12.6854 263° West  Level Estimated
09:34AM 63.1302 -12.9326 263° West  Level Estimated
09:35AM 63.1155 -13.1795 263° West  Level Estimated
09:36AM 63.1005 -13.4262 262° West  Level Estimated
09:37AM 63.0850 -13.6726 262° West  Level Estimated
09:38AM 63.0690 -13.9187 262° West  Level Estimated
09:39AM 63.0527 -14.1646 262° West  Level Estimated
09:40AM 63.0359 -14.4102 262° West  Level Estimated
09:41AM 63.0187 -14.6555 261° West  Level Estimated
09:42AM 63.0011 -14.9005 261° West  Level Estimated
09:43AM 62.9830 -15.1452 261° West  Level Estimated
09:44AM 62.9646 -15.3896 261° West  Level Estimated
09:45AM 62.9457 -15.6337 260° West  Level Estimated
09:46AM 62.9264 -15.8774 260° West  Level Estimated
09:47AM 62.9066 -16.1209 260° West  Level Estimated
09:48AM 62.8865 -16.3640 260° West  Level Estimated
09:49AM 62.8659 -16.6068 260° West  Level Estimated
09:50AM 62.8449 -16.8492 259° West  Level Estimated
09:51AM 62.8235 -17.0913 259° West  Level Estimated
09:52AM 62.8017 -17.3330 259° West  Level Estimated
09:53AM 62.7795 -17.5744 259° West  Level Estimated
09:54AM 62.7568 -17.8154 259° West  Level Estimated
09:55AM 62.7338 -18.0560 258° West  Level Estimated
09:56AM 62.7103 -18.2963 258° West  Level Estimated
09:57AM 62.6864 -18.5362 258° West  Level Estimated
09:58AM 62.6621 -18.7756 258° West  Level Estimated
09:59AM 62.6375 -19.0147 257° West  Level Estimated
10:00AM 62.6124 -19.2534 257° West  Level Estimated
10:01AM 62.5868 -19.4917 257° West  Level Estimated
10:02AM 62.5609 -19.7295 257° West  Level Estimated
10:03AM 62.5346 -19.9670 257° West  Level Estimated
10:04AM 62.5079 -20.2040 256° West  Level Estimated
10:05AM 62.4808 -20.4406 256° West  Level Estimated
10:06AM 62.4533 -20.6767 256° West  Level Estimated
10:07AM 62.4254 -20.9125 256° West  Level Estimated
10:08AM 62.3971 -21.1477 256° West  Level Estimated
10:09AM 62.3684 -21.3826 255° West  Level Estimated
10:10AM 62.3393 -21.6169 255° West  Level Estimated
10:11AM 62.3098 -21.8509 255° West  Level Estimated
10:12AM 62.2799 -22.0843 255° West  Level Estimated
10:13AM 62.2496 -22.3173 255° West  Level Estimated
10:14AM 62.2189 -22.5499 254° West  Level Estimated
10:15AM 62.1879 -22.7819 254° West  Level Estimated
10:16AM 62.1564 -23.0135 254° West  Level Estimated
10:17AM 62.1246 -23.2446 254° West  Level Estimated
10:18AM 62.0924 -23.4752 253° West  Level Estimated
10:19AM 62.0598 -23.7053 253° West  Level Estimated
10:20AM 62.0268 -23.9349 253° West  Level Estimated
10:21AM 61.9935 -24.1640 253° West  Level Estimated
10:22AM 61.9594 -24.3950 253° West  Level Estimated
10:23AM 61.9249 -24.6255 252° West  Level Estimated
10:24AM 61.8900 -24.8555 252° West  Level Estimated
10:25AM 61.8548 -25.0849 252° West  Level Estimated
10:26AM 61.8191 -25.3139 252° West  Level Estimated
10:27AM 61.7831 -25.5422 252° West  Level Estimated
10:28AM 61.7467 -25.7701 251° West  Level Estimated
10:29AM 61.7100 -25.9974 251° West  Level Estimated
10:30AM 61.6728 -26.2242 251° West  Level Estimated
10:31AM 61.6353 -26.4504 251° West  Level Estimated
10:32AM 61.5974 -26.6761 251° West  Level Estimated
10:33AM 61.5592 -26.9012 250° West  Level Estimated
10:34AM 61.5205 -27.1257 250° West  Level Estimated
10:35AM 61.4815 -27.3498 250° West  Level Estimated
10:36AM 61.4422 -27.5732 250° West  Level Estimated
10:37AM 61.4025 -27.7961 250° West  Level Estimated
10:38AM 61.3624 -28.0184 249° West  Level Estimated
10:39AM 61.3219 -28.2401 249° West  Level Estimated
10:40AM 61.2811 -28.4613 249° West  Level Estimated
10:41AM 61.2399 -28.6818 249° West  Level Estimated
10:42AM 61.1984 -28.9018 249° West  Level Estimated
10:43AM 61.1565 -29.1213 248° West  Level Estimated
10:44AM 61.1143 -29.3401 248° West  Level Estimated
10:45AM 61.0717 -29.5583 248° West  Level Estimated
10:46AM 61.0288 -29.7760 248° West  Level Estimated
10:47AM 60.9855 -29.9931 248° West  Level Estimated
10:48AM 60.9418 -30.2095 248° West  Level Estimated
10:49AM 60.8978 -30.4254 247° West  Level Estimated
10:50AM 60.8535 -30.6407 247° West  Level Estimated
10:51AM 60.8088 -30.8554 247° West  Level Estimated
10:52AM 60.7638 -31.0695 247° West  Level Estimated
10:53AM 60.7185 -31.2829 247° West  Level Estimated
10:54AM 60.6728 -31.4958 246° West  Level Estimated
10:55AM 60.6268 -31.7081 246° West  Level Estimated
10:56AM 60.5804 -31.9197 246° West  Level Estimated
10:57AM 60.5337 -32.1308 246° West  Level Estimated
10:58AM 60.4867 -32.3412 246° West  Level Estimated
10:59AM 60.4393 -32.5511 245° Southwest  Level Estimated
11:00AM 60.3916 -32.7603 245° Southwest  Level Estimated
11:01AM 60.3436 -32.9689 245° Southwest  Level Estimated
11:02AM 60.2953 -33.1769 245° Southwest  Level Estimated
11:03AM 60.2466 -33.3843 245° Southwest  Level Estimated
11:04AM 60.1976 -33.5910 245° Southwest  Level Estimated
11:05AM 60.1483 -33.7971 244° Southwest  Level Estimated
11:06AM 60.0987 -34.0027 244° Southwest  Level Estimated
11:07AM 60.0487 -34.2076 244° Southwest  Level Estimated
11:08AM 59.9985 -34.4118 244° Southwest  Level Estimated
11:09AM 59.9479 -34.6155 244° Southwest  Level Estimated
11:10AM 59.8970 -34.8185 244° Southwest  Level Estimated
11:11AM 59.8458 -35.0210 243° Southwest  Level Estimated
11:12AM 59.7943 -35.2227 243° Southwest  Level Estimated
11:13AM 59.7425 -35.4239 243° Southwest  Level Estimated
11:14AM 59.6903 -35.6244 243° Southwest  Level Estimated
11:15AM 59.6379 -35.8243 243° Southwest  Level Estimated
11:16AM 59.5852 -36.0236 242° Southwest  Level Estimated
11:17AM 59.5321 -36.2223 242° Southwest  Level Estimated
11:18AM 59.4788 -36.4203 242° Southwest  Level Estimated
11:19AM 59.4252 -36.6177 242° Southwest  Level Estimated
11:20AM 59.3713 -36.8145 242° Southwest  Level Estimated
11:21AM 59.3170 -37.0107 242° Southwest  Level Estimated
11:22AM 59.2625 -37.2062 241° Southwest  Level Estimated
11:23AM 59.2077 -37.4011 241° Southwest  Level Estimated
11:24AM 59.1526 -37.5954 241° Southwest  Level Estimated
11:25AM 59.0972 -37.7891 241° Southwest  Level Estimated
11:26AM 59.0415 -37.9821 241° Southwest  Level Estimated
11:27AM 58.9856 -38.1745 241° Southwest  Level Estimated
11:28AM 58.9293 -38.3662 240° Southwest  Level Estimated
11:29AM 58.8728 -38.5574 240° Southwest  Level Estimated
11:30AM 58.8160 -38.7479 240° Southwest  Level Estimated
11:31AM 58.7589 -38.9378 240° Southwest  Level Estimated
11:32AM 58.7015 -39.1271 240° Southwest  Level Estimated
11:33AM 58.6439 -39.3157 240° Southwest  Level Estimated
11:34AM 58.5859 -39.5038 239° Southwest  Level Estimated
11:35AM 58.5277 -39.6912 239° Southwest  Level Estimated
11:36AM 58.4693 -39.8779 239° Southwest  Level Estimated
11:37AM 58.4105 -40.0641 239° Southwest  Level Estimated
11:38AM 58.3515 -40.2496 239° Southwest  Level Estimated
11:39AM 58.2922 -40.4346 239° Southwest  Level Estimated
11:40AM 58.2327 -40.6189 239° Southwest  Level Estimated
11:41AM 58.1729 -40.8026 238° Southwest  Level Estimated
11:42AM 58.1128 -40.9856 238° Southwest  Level Estimated
11:43AM 58.0525 -41.1680 238° Southwest  Level Estimated
11:44AM 57.9919 -41.3499 238° Southwest  Level Estimated
11:45AM 57.9310 -41.5311 238° Southwest  Level Estimated
11:46AM 57.8699 -41.7117 238° Southwest  Level Estimated
11:47AM 57.8086 -41.8917 237° Southwest  Level Estimated
11:48AM 57.7470 -42.0710 237° Southwest  Level Estimated
11:49AM 57.6851 -42.2498 237° Southwest  Level Estimated
11:50AM 57.6230 -42.4280 237° Southwest  Level Estimated
11:51AM 57.5606 -42.6055 237° Southwest  Level Estimated
11:52AM 57.4980 -42.7824 237° Southwest  Level Estimated
11:53AM 57.4351 -42.9587 237° Southwest  Level Estimated
11:54AM 57.3720 -43.1345 236° Southwest  Level Estimated
11:55AM 57.3087 -43.3096 236° Southwest  Level Estimated
11:56AM 57.2451 -43.4841 236° Southwest  Level Estimated
11:57AM 57.1812 -43.6580 236° Southwest  Level Estimated
11:58AM 57.1171 -43.8313 236° Southwest  Level Estimated
11:59AM 57.0528 -44.0040 236° Southwest  Level Estimated
12:00PM 56.9883 -44.1761 236° Southwest  Level Estimated
12:01PM 56.9235 -44.3476 235° Southwest  Level Estimated
12:02PM 56.8585 -44.5186 235° Southwest  Level Estimated
12:03PM 56.7932 -44.6889 235° Southwest  Level Estimated
12:04PM 56.7266 -44.8616 235° Southwest  Level Estimated
12:05PM 56.6597 -45.0337 235° Southwest  Level Estimated
12:06PM 56.5926 -45.2052 235° Southwest  Level Estimated
12:07PM 56.5253 -45.3760 234° Southwest  Level Estimated
12:08PM 56.4577 -45.5462 234° Southwest  Level Estimated
12:09PM 56.3899 -45.7159 234° Southwest  Level Estimated
12:10PM 56.3219 -45.8849 234° Southwest  Level Estimated
12:11PM 56.2536 -46.0534 234° Southwest  Level Estimated
12:11PM 59.3500 -57.0000 233° Southwest 440 506 39,000  Level Gander Center
12:12PM 56.1851 -46.2212 234° Southwest  Level Estimated
12:12PM 59.2667 -57.1833 228° Southwest 440 506 39,000  Level Gander Center
12:13PM 56.1164 -46.3884 234° Southwest  Level Estimated
12:13PM 59.2000 -57.3500 232° Southwest 440 506 39,000  Level Gander Center
12:14PM 56.0475 -46.5551 234° Southwest  Level Estimated
12:14PM 59.1167 -57.5167 226° Southwest 440 506 39,000  Level Gander Center
12:15PM 55.9783 -46.7211 233° Southwest  Level Estimated
12:15PM 59.0333 -57.7167 231° Southwest 440 506 39,000  Level Gander Center
12:16PM 55.9089 -46.8866 233° Southwest  Level Estimated
12:16PM 58.9500 -57.8667 223° Southwest 430 495 39,000  Level Gander Center
12:17PM 55.8394 -47.0512 233° Southwest  Level Estimated
12:17PM 58.8500 -58.0000 215° Southwest 440 506 39,000  Level Gander Center
12:18PM 58.7333 -58.1000 204° Southwest 440 506 39,000  Level Gander Center
12:19PM 58.6333 -58.2333 215° Southwest 440 506 39,000  Level Gander Center
12:20PM 58.5333 -58.3833 218° Southwest 440 506 39,000  Level Gander Center
12:21PM 58.4167 -58.4833 204° Southwest 440 506 39,000  Level Gander Center
12:22PM 58.3333 -58.6167 220° Southwest 440 506 39,000  Level Gander Center
12:23PM 58.2333 -58.7500 215° Southwest 430 495 39,000  Level Gander Center
12:24PM 58.1333 -58.8500 208° Southwest 430 495 39,000  Level Gander Center
12:25PM 58.0333 -58.9833 215° Southwest 430 495 39,000  Level Gander Center
12:26PM 57.9167 -59.0833 204° Southwest 430 495 39,000  Level Gander Center
12:27PM 57.8167 -59.2167 215° Southwest 440 506 39,000  Level Gander Center
12:28PM 57.7000 -59.3500 211° Southwest 440 506 39,000  Level Gander Center
12:29PM 57.6000 -59.4500 208° Southwest 440 506 39,000  Level Gander Center
12:30PM 57.5167 -59.5667 217° Southwest 430 495 39,000  Level Gander Center
12:31PM 57.4167 -59.6667 208° Southwest 430 495 39,000  Level Gander Center
12:32PM 57.3167 -59.8000 216° Southwest 420 483 39,000  Level Gander Center
12:33PM 57.2000 -59.9000 205° Southwest 420 483 39,000  Level Gander Center
12:34PM 57.1167 -60.0167 217° Southwest 420 483 39,000  Level Gander Center
12:35PM 57.0000 -60.1500 212° Southwest 420 483 39,000  Level Gander Center
12:36PM 56.9167 -60.2500 213° Southwest 420 483 39,000  Level Gander Center
12:37PM 56.8000 -60.3667 209° Southwest 420 483 39,000  Level Gander Center
12:38PM 56.7000 -60.4667 209° Southwest 420 483 39,000  Level Gander Center
12:39PM 56.6000 -60.5500 205° Southwest 410 472 39,000  Level Gander Center
12:40PM 56.5000 -60.6833 216° Southwest 420 483 39,000  Level Gander Center
12:41PM 56.4000 -60.7667 205° Southwest 420 483 39,000  Level Gander Center
12:42PM 56.3000 -60.8833 213° Southwest 410 472 39,000  Level Gander Center
12:43PM 56.2167 -60.9833 214° Southwest 410 472 39,000  Level Gander Center
12:44PM 56.1000 -61.0667 202° Southwest 410 472 39,000  Level Gander Center
12:45PM 56.0167 -61.2000 222° Southwest 410 472 39,000  Level Gander Center
12:46PM 55.9000 -61.2833 202° Southwest 410 472 39,000  Level Gander Center
12:47PM 55.8167 -61.4000 218° Southwest 410 472 39,000  Level Gander Center
12:48PM 55.7167 -61.4833 205° Southwest 410 472 39,000  Level Gander Center
12:49PM 55.6167 -61.5833 209° Southwest 410 472 39,000  Level Gander Center
12:50PM 55.5167 -61.7000 213° Southwest 410 472 39,000  Level Gander Center
12:51PM 55.4167 -61.7833 205° Southwest 400 460 39,000  Level Gander Center
12:52PM 55.3333 -61.8667 210° Southwest 390 449 39,000  Level Gander Center
12:53PM 55.2333 -61.9833 214° Southwest 400 460 39,000  Level Gander Center
12:54PM 55.1333 -62.0667 205° Southwest 400 460 39,000  Level Gander Center
12:55PM 55.0333 -62.1500 206° Southwest 390 449 39,000  Level Gander Center
12:56PM 54.9500 -62.2500 215° Southwest 390 449 39,000  Level Gander Center
12:57PM 54.8500 -62.3500 210° Southwest 400 460 39,000  Level Gander Center
12:58PM 54.7500 -62.4333 206° Southwest 400 460 39,000  Level Gander Center
12:59PM 54.6667 -62.5167 210° Southwest 390 449 39,000  Level Gander Center
01:00PM 54.5667 -62.6000 206° Southwest 390 449 39,000  Level Gander Center
01:01PM 54.4500 -62.6833 203° Southwest 380 437 39,000  Level Gander Center
01:02PM 54.3667 -62.8000 219° Southwest 390 449 39,000  Level Gander Center
01:03PM 54.2667 -62.8833 206° Southwest 380 437 39,000  Level Gander Center
01:04PM 54.1833 -62.9667 210° Southwest 380 437 39,000  Level Gander Center
01:05PM 54.1000 -63.0500 210° Southwest 370 426 39,000  Level Gander Center
01:06PM 54.0000 -63.1333 206° Southwest 370 426 39,000  Level Gander Center
01:07PM 53.9167 -63.2167 211° Southwest 370 426 39,000  Level Gander Center
01:08PM 53.8333 -63.3000 211° Southwest 360 414 39,000  Level Gander Center
01:09PM 53.7333 -63.3667 202° Southwest 360 414 39,000  Level Gander Center
01:10PM 53.6667 -63.4500 217° Southwest 350 403 39,000  Level Gander Center
01:11PM 53.5667 -63.5333 206° Southwest 350 403 39,000  Level Gander Center
01:12PM 53.4667 -63.6167 206° Southwest 360 414 39,000  Level Gander Center
01:13PM 53.3833 -63.7000 211° Southwest 360 414 39,000  Level Gander Center
01:14PM 53.3000 -63.7500 200° South 350 403 39,000  Level Gander Center
01:15PM 53.2167 -63.8500 216° Southwest 350 403 39,000  Level Gander Center
01:16PM 53.1333 -63.9000 200° South 340 391 39,000  Level Gander Center
01:17PM 53.0500 -63.9833 211° Southwest 330 380 39,000  Level Gander Center
01:18PM 52.9667 -64.0500 206° Southwest 340 391 39,000  Level Gander Center
01:19PM 52.9000 -64.1167 211° Southwest 330 380 39,000  Level Gander Center
01:20PM 52.8167 -64.1833 206° Southwest 320 368 39,000  Level Gander Center
01:21PM 52.7167 -64.2667 207° Southwest 320 368 39,000  Level Gander Center
01:22PM 52.6500 -64.3500 217° Southwest 320 368 39,000  Level Gander Center
01:23PM 52.5667 -64.3833 194° South 320 368 39,000  Level Gander Center
01:24PM 52.5000 -64.4667 217° Southwest 320 368 39,000  Level Gander Center
01:25PM 52.4167 -64.5167 200° South 320 368 39,000  Level Gander Center
01:26PM 52.3333 -64.6000 211° Southwest 320 368 39,000  Level Gander Center
01:27PM 52.2667 -64.6667 211° Southwest 320 368 39,000  Level Gander Center
01:28PM 52.1833 -64.7167 200° South 320 368 39,000  Level Gander Center
01:29PM 52.1167 -64.7833 212° Southwest 320 368 39,000  Level Moncton Center
01:30PM 52.0333 -64.8333 200° South 310 357 39,000  Level Moncton Center
01:31PM 51.9500 -64.9167 212° Southwest 310 357 39,000  Level Moncton Center
01:32PM 51.8833 -64.9667 205° Southwest 310 357 39,000  Level Moncton Center
01:33PM 51.8167 -65.0167 205° Southwest 310 357 39,000  Level Moncton Center
01:34PM 51.7333 -65.1000 212° Southwest 310 357 39,000  Level Moncton Center
01:35PM 51.6500 -65.1500 200° South 300 345 39,000  Level Moncton Center
01:36PM 51.5833 -65.2000 205° Southwest 300 345 39,000  Level Moncton Center
01:37PM 51.5167 -65.2833 218° Southwest 300 345 39,000  Level Moncton Center
01:38PM 51.4333 -65.3333 201° Southwest 300 345 39,000  Level Moncton Center
01:39PM 51.3667 -65.3833 205° Southwest 300 345 39,000  Level Moncton Center
01:40PM 51.2833 -65.4667 212° Southwest 300 345 39,000  Level Moncton Center
01:41PM 51.2167 -65.5167 205° Southwest 300 345 39,000  Level Moncton Center
01:42PM 51.1333 -65.5667 201° Southwest 300 345 39,000  Level Moncton Center
01:43PM 51.0333 -65.6500 208° Southwest 300 345 39,000  Level Moncton Center
01:44PM 50.9667 -65.7000 205° Southwest 300 345 39,000  Level Moncton Center
01:45PM 50.8833 -65.7500 201° Southwest 310 357 39,000  Level Moncton Center
01:46PM 50.8167 -65.8333 218° Southwest 310 357 39,000  Level Moncton Center
01:47PM 50.7333 -65.8833 201° Southwest 310 357 39,000  Level Moncton Center
01:48PM 50.6667 -65.9333 205° Southwest 310 357 39,000  Level Moncton Center
01:49PM 50.5833 -66.0000 207° Southwest 310 357 39,000  Level Moncton Center
01:50PM 50.5000 -66.0500 201° Southwest 310 357 39,000  Level Moncton Center
01:51PM 50.4333 -66.1000 206° Southwest 310 357 39,000  Level Moncton Center
01:52PM 50.3500 -66.1833 213° Southwest 310 357 39,000  Level Moncton Center
01:53PM 50.2833 -66.2333 206° Southwest 310 357 39,000  Level Moncton Center
01:54PM 50.2000 -66.2833 201° Southwest 310 357 39,000  Level Moncton Center
01:55PM 50.1167 -66.3333 201° Southwest 320 368 39,000  Level Moncton Center
01:56PM 50.0333 -66.3833 201° Southwest 320 368 39,000  Level Moncton Center
01:57PM 49.9500 -66.4333 201° Southwest 320 368 39,000  Level Moncton Center
01:58PM 49.8500 -66.4667 192° South 320 368 39,000  Level Moncton Center
01:59PM 49.7667 -66.5167 201° Southwest 320 368 39,000  Level Moncton Center
02:00PM 49.6833 -66.5667 201° Southwest 320 368 39,000  Level Moncton Center
02:01PM 49.6000 -66.6167 201° Southwest 330 380 39,000  Level Moncton Center
02:02PM 49.5167 -66.6667 201° Southwest 330 380 39,000  Level Moncton Center
02:03PM 49.4333 -66.7167 201° Southwest 330 380 39,000  Level Moncton Center
02:04PM 49.3500 -66.7667 201° Southwest 330 380 39,000  Level Moncton Center
02:05PM 49.2667 -66.8167 201° Southwest 330 380 39,000  Level Moncton Center
02:06PM 49.1833 -66.8500 195° South 330 380 39,000  Level Moncton Center
02:07PM 49.0833 -66.9000 198° South 330 380 39,000  Level Moncton Center
02:08PM 49.0000 -66.9500 201° Southwest 330 380 39,000  Level Moncton Center
02:09PM 48.9167 -67.0000 202° Southwest 330 380 39,000  Level Moncton Center
02:10PM 48.8167 -67.0500 198° South 330 380 39,000  Level Moncton Center
02:11PM 48.7333 -67.0833 195° South 340 391 39,000 -60 Level Moncton Center
02:12PM 48.6333 -67.1333 198° South 340 391 38,900  Descending Moncton Center
02:13PM 48.5500 -67.1833 202° Southwest 340 391 39,000  Climbing Moncton Center
02:19PM 48.0133 -67.4723 202° Southwest 348 400 39,000  Level FlightAware ADS-B (CYSG)
02:19PM 47.9672 -67.4931 202° Southwest 346 398 39,000  Level Boston Center
02:25PM 47.3944 -67.7870 202° Southwest 354 407 39,000  Level FlightAware ADS-B (CYSG)
02:27PM 47.3150 -67.8275 202° Southwest 356 410 39,000  Level Boston Center
02:28PM 47.2025 -67.8822 198° South 357 411 39,000  Level Boston Center
02:29PM 47.1097 -67.9303 199° South 352 405 39,000  Level Boston Center
02:34PM 46.5641 -68.1823 199° South 363 418 39,000  Level FlightAware ADS-B (CYSG)
02:35PM 46.5064 -68.2063 196° South 365 420 39,000  Level FlightAware ADS-B (CYSG)
02:36PM 46.4370 -68.2349 196° South 364 419 39,000  Level FlightAware ADS-B (CYSG)
02:36PM 46.3808 -68.2581 196° South 364 419 39,000  Level FlightAware ADS-B (CYSG)
02:37PM 46.3254 -68.2810 196° South 366 421 39,000  Level FlightAware ADS-B (CYSG)
02:38PM 46.1868 -68.3378 196° South 369 425 39,000  Level FlightAware ADS-B (CYSG)
02:39PM 46.1348 -68.3589 196° South 370 426 39,000  Level FlightAware ADS-B (CYSG)
02:39PM 46.0684 -68.3860 196° South 371 427 39,000  Level FlightAware ADS-B (CYSG)
02:40PM 45.9880 -68.4186 196° South 372 428 39,000  Level FlightAware ADS-B (CYSG)
02:41PM 45.9178 -68.4471 196° South 373 429 39,000  Level FlightAware ADS-B (CYSG)
02:41PM 45.8671 -68.4676 196° South 374 430 39,000  Level FlightAware ADS-B (CYSG)
02:42PM 45.7976 -68.4956 196° South 375 432 39,000  Level FlightAware ADS-B (CYSG)
02:43PM 45.7525 -68.5138 196° South 375 432 39,000  Level FlightAware ADS-B (KBGR)
02:43PM 45.6785 -68.5436 196° South 376 433 39,000  Level FlightAware ADS-B (CYSG)
02:44PM 45.5934 -68.5776 196° South 374 430 39,000  Level FlightAware ADS-B (KBGR)
02:45PM 45.5321 -68.6021 196° South 370 426 39,000  Level FlightAware ADS-B (KBGR)
02:46PM 45.4620 -68.6300 196° South 368 423 39,000  Level FlightAware ADS-B (CYSG)
02:46PM 45.3988 -68.6553 196° South 367 422 39,000  Level FlightAware ADS-B (CYSG)
02:47PM 45.3336 -68.6810 196° South 366 421 39,000  Level FlightAware ADS-B (CYSG)
02:47PM 45.2718 -68.7054 196° South 367 422 39,000  Level FlightAware ADS-B (CYSG)
02:48PM 45.2094 -68.7300 196° South 368 423 39,000  Level FlightAware ADS-B (CYSG)
02:49PM 45.1495 -68.7537 196° South 370 426 39,000  Level FlightAware ADS-B (CYSG)
02:49PM 45.0905 -68.7769 195° South 370 426 39,000  Level FlightAware ADS-B (CYSG)
02:50PM 45.0402 -68.7966 195° South 372 428 39,000  Level FlightAware ADS-B (KBGR)
02:51PM 44.9649 -68.8261 196° South 372 428 39,000  Level FlightAware ADS-B (KBGR)
02:51PM 44.9147 -68.8458 195° South 377 434 39,000  Level FlightAware ADS-B (CYSG)
02:52PM 44.8700 -68.8633 196° South 378 435 39,000  Level FlightAware ADS-B (KBGR)
02:52PM 44.8083 -68.8961 201° Southwest 361 415 39,000  Level FlightAware ADS-B (CYSG)
02:53PM 44.7487 -68.9377 206° Southwest 361 415 39,000  Level FlightAware ADS-B (CYSG)
02:53PM 44.7016 -68.9699 206° Southwest 361 415 39,000  Level FlightAware ADS-B (CYSG)
02:54PM 44.6393 -69.0123 206° Southwest 361 415 39,000  Level FlightAware ADS-B (CYSG)
02:55PM 44.5898 -69.0460 206° Southwest 361 415 39,000  Level FlightAware ADS-B
02:55PM 44.5327 -69.0846 206° Southwest 361 415 39,000  Level FlightAware ADS-B (KBGR)
02:56PM 44.4952 -69.1100 206° Southwest 362 417 39,000  Level FlightAware ADS-B (CYSG)
02:56PM 44.4478 -69.1421 206° Southwest 360 414 39,000  Level FlightAware ADS-B (KBGR)
02:57PM 44.3988 -69.1750 206° Southwest 357 411 39,000  Level FlightAware ADS-B (CYSG)
02:57PM 44.3542 -69.2053 206° Southwest 366 421 39,000  Level FlightAware ADS-B (KBGR)
02:58PM 44.2911 -69.2478 206° Southwest 366 421 39,000  Level FlightAware ADS-B (KBGR)
02:59PM 44.2310 -69.2878 205° Southwest 359 413 39,000  Level FlightAware ADS-B (KBGR)
02:59PM 44.1711 -69.3277 206° Southwest 359 413 39,000  Level FlightAware ADS-B (CYQI)
03:00PM 44.1166 -69.3643 206° Southwest 362 417 39,000  Level FlightAware ADS-B (KBGR)
03:00PM 44.0603 -69.4020 206° Southwest 367 422 39,000  Level FlightAware ADS-B (CYQI)
03:01PM 44.0175 -69.4305 205° Southwest 357 411 39,000  Level FlightAware ADS-B
03:01PM 43.9866 -69.4507 205° Southwest 359 413 39,000  Level FlightAware ADS-B
03:02PM 43.9311 -69.4876 206° Southwest 368 423 39,000  Level FlightAware ADS-B (KBGR)
03:03PM 43.8665 -69.5301 205° Southwest 368 423 39,000  Level FlightAware ADS-B (KBGR)
03:03PM 43.7962 -69.5765 205° Southwest 370 426 39,000  Level FlightAware ADS-B (KBOS)
03:04PM 43.7422 -69.6120 205° Southwest 356 410 39,000  Level FlightAware ADS-B
03:05PM 43.6807 -69.6526 206° Southwest 363 418 39,000  Level FlightAware ADS-B
03:05PM 43.6421 -69.6779 205° Southwest 374 430 39,000  Level FlightAware ADS-B (KBOS)
03:06PM 43.5726 -69.7235 205° Southwest 375 432 39,000  Level FlightAware ADS-B (KBOS)
03:06PM 43.5238 -69.7552 205° Southwest 372 428 39,000  Level FlightAware ADS-B
03:07PM 43.4804 -69.7835 205° Southwest 372 428 39,000  Level FlightAware ADS-B (KBOS)
03:07PM 43.4298 -69.8137 203° Southwest 375 432 39,000  Level FlightAware ADS-B
03:08PM 43.3957 -69.8284 197° South 395 455 39,000  Level FlightAware ADS-B (KBOS)
03:09PM 43.2975 -69.8512 190° South 409 471 39,000  Level FlightAware ADS-B (KBOS)
03:09PM 43.2217 -69.8637 187° South 412 474 39,000  Level FlightAware ADS-B (KBOS)
03:10PM 43.1401 -69.8762 186° South 413 475 39,000  Level FlightAware ADS-B (KBOS)
03:11PM 43.0602 -69.8879 186° South 405 466 39,000  Level FlightAware ADS-B
03:11PM 42.9806 -69.8994 186° South 403 464 39,000  Level FlightAware ADS-B
03:12PM 42.9213 -69.9080 186° South 410 472 39,000  Level FlightAware ADS-B
03:12PM 42.8560 -69.9175 186° South 412 474 39,000  Level FlightAware ADS-B (KBOS)
03:13PM 42.7838 -69.9279 186° South 414 476 39,000  Level FlightAware ADS-B (KBOS)
03:14PM 42.7039 -69.9393 186° South 415 478 39,000  Level FlightAware ADS-B (KBOS)
03:14PM 42.6262 -69.9506 186° South 415 478 39,000  Level FlightAware ADS-B (KBOS)
03:15PM 42.5577 -69.9604 186° South 415 478 39,000  Level FlightAware ADS-B (KBOS)
03:16PM 42.4904 -69.9699 186° South 416 479 39,000  Level FlightAware ADS-B
03:16PM 42.4329 -69.9782 186° South 416 479 39,000  Level FlightAware ADS-B (KBOS)
03:17PM 42.3522 -69.9898 186° South 408 470 39,000  Level FlightAware ADS-B
03:17PM 42.2815 -69.9998 186° South 409 471 39,000  Level FlightAware ADS-B
03:18PM 42.2140 -70.0094 186° South 413 475 39,000  Level FlightAware ADS-B
03:19PM 42.1485 -70.0215 188° South 403 464 39,000  Level FlightAware ADS-B (KBOS)
03:19PM 42.0898 -70.0432 195° South 392 451 39,000  Level FlightAware ADS-B
03:20PM 42.0429 -70.0690 202° Southwest 386 444 39,000  Level FlightAware ADS-B
03:20PM 41.9886 -70.1097 209° Southwest 380 437 39,000  Level FlightAware ADS-B
03:21PM 41.9405 -70.1581 217° Southwest 368 423 39,000  Level FlightAware ADS-B
03:21PM 41.9276 -70.1734 222° Southwest 372 428 39,000  Level FlightAware ADS-B
03:21PM 41.9155 -70.1890 224° Southwest 366 421 39,000  Level FlightAware ADS-B
03:22PM 41.8780 -70.2430 227° Southwest 367 422 39,000  Level FlightAware ADS-B (KBOS)
03:22PM 41.8319 -70.3096 227° Southwest 365 420 39,000  Level FlightAware ADS-B (KBOS)
03:23PM 41.7942 -70.3645 227° Southwest 370 426 39,000  Level FlightAware ADS-B (KBOS)
03:23PM 41.7547 -70.4221 227° Southwest 369 425 39,000  Level FlightAware ADS-B
03:24PM 41.7141 -70.4811 227° Southwest 377 434 39,000 -300 Level FlightAware ADS-B (KBOS)
03:24PM 41.6781 -70.5333 227° Southwest 379 436 38,700 -540 Descending FlightAware ADS-B
03:25PM 41.6340 -70.5971 227° Southwest 378 435 38,400 -540 Descending FlightAware ADS-B
03:26PM 41.5995 -70.6470 227° Southwest 375 432 38,100 -360 Descending FlightAware ADS-B (EDDS / STR)
03:26PM 41.5505 -70.7176 227° Southwest 370 426 38,000 -120 Descending FlightAware ADS-B
03:27PM 41.5138 -70.7704 227° Southwest 365 420 38,000  Level FlightAware ADS-B
03:27PM 41.4682 -70.8359 227° Southwest 367 422 38,000  Level FlightAware ADS-B
03:28PM 41.4202 -70.9047 227° Southwest 367 422 38,000  Level FlightAware ADS-B
03:29PM 41.4189 -70.9065 226° Southwest 372 428 38,000  Level FlightAware ADS-B (KOWD)
03:29PM 41.3259 -71.0395 227° Southwest 368 423 38,000  Level FlightAware ADS-B
03:30PM 41.2808 -71.1072 228° Southwest 369 425 38,000  Level FlightAware ADS-B
03:30PM 41.2817 -71.1056 53° Northeast 369 425 38,000  Level FlightAware ADS-B
03:31PM 41.2447 -71.1829 238° Southwest 362 417 38,000  Level FlightAware ADS-B
03:31PM 41.2299 -71.2263 246° West 365 420 38,000  Level FlightAware ADS-B (EDDS / STR)
03:32PM 41.2072 -71.3078 250° West 365 420 38,000  Level FlightAware ADS-B
03:32PM 41.1959 -71.3480 249° West 364 419 38,000  Level FlightAware ADS-B
03:33PM 41.1770 -71.4152 250° West 364 419 38,000  Level FlightAware ADS-B
03:33PM 41.1568 -71.4870 250° West 365 420 38,000  Level FlightAware ADS-B
03:34PM 41.1247 -71.6010 250° West 364 419 38,000  Level FlightAware ADS-B
03:35PM 41.1014 -71.6829 249° West 364 419 38,000  Level FlightAware ADS-B
03:35PM 41.0831 -71.7474 249° West 365 420 38,000  Level FlightAware ADS-B
03:36PM 41.0758 -71.7727 249° West 365 420 38,000  Level FlightAware ADS-B
03:36PM 41.0566 -71.8135 238° Southwest 371 427 38,000  Level FlightAware ADS-B (KSNC)
03:37PM 41.0149 -71.8772 229° Southwest 372 428 38,000  Level FlightAware ADS-B
03:37PM 40.9787 -71.9327 229° Southwest 373 429 38,000  Level FlightAware ADS-B (EDDS / STR)
03:38PM 40.9565 -71.9665 229° Southwest 374 430 38,000  Level FlightAware ADS-B
03:38PM 40.9021 -72.0493 229° Southwest 375 432 38,000  Level FlightAware ADS-B
03:40PM 40.7574 -72.2689 229° Southwest 369 425 38,000  Level FlightAware ADS-B (KSNC)
03:41PM 40.7109 -72.3396 229° Southwest 367 422 38,000  Level FlightAware ADS-B (KSNC)
03:42PM 40.6703 -72.4011 229° Southwest 363 418 38,000  Level FlightAware ADS-B (KSNC)
03:42PM 40.6234 -72.4720 229° Southwest 363 418 38,000  Level FlightAware ADS-B (KSNC)
03:43PM 40.5796 -72.5381 229° Southwest 364 419 38,000  Level FlightAware ADS-B (KSNC)
03:44PM 40.5348 -72.6053 229° Southwest 366 421 38,000  Level FlightAware ADS-B (KSNC)
03:44PM 40.4909 -72.6713 229° Southwest 368 423 38,000  Level FlightAware ADS-B (KSNC)
03:45PM 40.4539 -72.7267 229° Southwest 366 421 38,000  Level FlightAware ADS-B (KWWD)
03:46PM 40.3991 -72.8085 229° Southwest 366 421 38,000  Level FlightAware ADS-B (KSNC)
03:46PM 40.3554 -72.8737 229° Southwest 366 421 38,000  Level FlightAware ADS-B (KSNC)
03:47PM 40.3222 -72.9233 229° Southwest 366 421 38,000  Level FlightAware ADS-B (KWWD)
03:47PM 40.2902 -72.9710 229° Southwest 371 427 38,000  Level FlightAware ADS-B (KSNC)
03:48PM 40.2425 -73.0415 228° Southwest 373 429 38,000  Level FlightAware ADS-B (KSNC)
03:49PM 40.2081 -73.0923 228° Southwest 372 428 38,000  Level FlightAware ADS-B (KWWD)
03:49PM 40.1681 -73.1513 228° Southwest 373 429 38,000  Level FlightAware ADS-B (KWWD)
03:50PM 40.1289 -73.2091 228° Southwest 373 429 38,000  Level FlightAware ADS-B (KSNC)
03:50PM 40.0937 -73.2596 228° Southwest 374 430 38,000  Level FlightAware ADS-B (KWWD)
03:51PM 40.0525 -73.3066 221° Southwest 380 437 38,000  Level FlightAware ADS-B (KSNC)
03:51PM 40.0146 -73.3494 221° Southwest 380 437 38,000  Level FlightAware ADS-B (KSNC)
03:52PM 39.9553 -73.4164 221° Southwest 379 436 38,000  Level FlightAware ADS-B (KSNC)
03:53PM 39.9075 -73.4699 221° Southwest 378 435 38,000  Level FlightAware ADS-B (KWWD)
03:53PM 39.8518 -73.5320 221° Southwest 378 435 38,000  Level FlightAware ADS-B (KWWD)
03:54PM 39.8039 -73.5854 221° Southwest 379 436 38,000  Level FlightAware ADS-B (KWWD)
03:54PM 39.7634 -73.6303 220° Southwest 381 438 38,000  Level FlightAware ADS-B (KSNC)
03:55PM 39.7174 -73.6813 220° Southwest 382 440 38,000  Level FlightAware ADS-B (KWWD)
03:56PM 39.6676 -73.7365 220° Southwest 381 438 38,000  Level FlightAware ADS-B (KWWD)
03:56PM 39.6119 -73.7980 220° Southwest 380 437 38,000  Level FlightAware ADS-B (KWWD)
03:57PM 39.5632 -73.8518 220° Southwest 380 437 38,000  Level FlightAware ADS-B (KWWD)
03:58PM 39.5029 -73.9180 220° Southwest 381 438 38,000  Level FlightAware ADS-B (KWWD)
03:58PM 39.4444 -73.9682 214° Southwest 386 444 38,000  Level FlightAware ADS-B (KWWD)
03:59PM 39.3824 -74.0194 213° Southwest 386 444 38,000  Level FlightAware ADS-B (KWWD)
04:00PM 39.3260 -74.0663 213° Southwest 387 445 38,000  Level FlightAware ADS-B (KWWD)
04:00PM 39.2621 -74.1193 213° Southwest 388 447 38,000  Level FlightAware ADS-B (KWWD)
04:01PM 39.2009 -74.1698 213° Southwest 382 440 38,000  Level FlightAware ADS-B (KWWD)
04:02PM 39.1418 -74.2186 213° Southwest 383 441 38,000  Level FlightAware ADS-B (KWWD)
04:02PM 39.0802 -74.2692 213° Southwest 384 442 38,000  Level FlightAware ADS-B (KWWD)
04:03PM 39.0191 -74.3193 213° Southwest 385 443 38,000  Level FlightAware ADS-B (KWWD)
04:04PM 38.9579 -74.3695 212° Southwest 386 444 38,000  Level FlightAware ADS-B (KWWD)
04:04PM 38.8967 -74.4196 212° Southwest 387 445 38,000  Level FlightAware ADS-B (KWWD)
04:05PM 38.8396 -74.4661 212° Southwest 388 447 38,000  Level FlightAware ADS-B (KWWD)
04:06PM 38.7778 -74.5163 212° Southwest 388 447 38,000  Level FlightAware ADS-B (KWWD)
04:06PM 38.7128 -74.5692 212° Southwest 388 447 38,000  Level FlightAware ADS-B (KWWD)
04:07PM 38.6500 -74.6201 212° Southwest 388 447 38,000  Level FlightAware ADS-B (KWWD)
04:08PM 38.5870 -74.6666 210° Southwest 392 451 38,000  Level FlightAware ADS-B (KWWD)
04:08PM 38.5194 -74.7031 203° Southwest 401 461 38,000  Level FlightAware ADS-B (KWWD)
04:09PM 38.4501 -74.7411 203° Southwest 401 461 38,000  Level FlightAware ADS-B (KWWD)
04:10PM 38.3863 -74.7760 203° Southwest 400 460 38,000  Level FlightAware ADS-B (KWWD)
04:10PM 38.3160 -74.8145 203° Southwest 401 461 38,000  Level FlightAware ADS-B (KWWD)
04:11PM 38.2463 -74.8525 203° Southwest 401 461 38,000  Level FlightAware ADS-B (KWWD)
04:12PM 38.1795 -74.8888 203° Southwest 401 461 38,000  Level FlightAware ADS-B (KWWD)
04:12PM 38.1124 -74.9252 203° Southwest 401 461 38,000  Level FlightAware ADS-B (KWWD)
04:13PM 38.0416 -74.9636 203° Southwest 403 464 38,000  Level FlightAware ADS-B (KWWD)
04:14PM 37.9741 -75.0001 203° Southwest 402 463 38,000  Level FlightAware ADS-B (KWWD)
04:14PM 37.9031 -75.0383 203° Southwest 401 461 38,000  Level FlightAware ADS-B (KWWD)
04:15PM 37.8375 -75.0735 203° Southwest 400 460 38,000  Level FlightAware ADS-B (KWWD)
04:16PM 37.7667 -75.1118 203° Southwest 401 461 38,000  Level FlightAware ADS-B (KWWD)
04:16PM 37.7013 -75.1470 203° Southwest 401 461 38,000  Level FlightAware ADS-B (KWWD)
04:17PM 37.6301 -75.1852 203° Southwest 403 464 38,000  Level FlightAware ADS-B (KWWD)
04:18PM 37.5651 -75.2199 203° Southwest 404 465 38,000  Level FlightAware ADS-B (KWWD)
04:18PM 37.4918 -75.2591 203° Southwest 406 467 38,000  Level FlightAware ADS-B (KWWD)
04:19PM 37.4234 -75.2956 203° Southwest 406 467 38,000  Level FlightAware ADS-B (KWWD)
04:20PM 37.3536 -75.3326 203° Southwest 406 467 38,000  Level FlightAware ADS-B (KWWD)
04:21PM 37.2363 -75.3949 203° Southwest 406 467 38,000  Level FlightAware ADS-B (KWWD)
04:22PM 37.0700 -75.4827 203° Southwest 402 463 38,000  Level FlightAware ADS-B (KWWD)
04:23PM 36.9989 -75.5217 203° Southwest 401 461 38,000  Level Washington Center
04:24PM 36.8842 -75.5814 203° Southwest 407 468 38,000  Level Washington Center
04:25PM 36.7756 -75.6361 202° Southwest 417 480 38,000  Level Washington Center
04:26PM 36.6692 -75.6903 202° Southwest 417 480 38,000  Level Washington Center
04:27PM 36.5628 -75.7472 203° Southwest 417 480 38,000  Level Washington Center
04:28PM 36.4542 -75.8036 203° Southwest 417 480 38,000  Level Washington Center
04:29PM 36.3497 -75.8603 204° Southwest 417 480 38,000  Level Washington Center
04:30PM 36.2411 -75.9139 202° Southwest 417 480 38,000  Level Washington Center
04:31PM 36.1325 -75.9675 202° Southwest 417 480 38,000  Level Washington Center
04:32PM 36.0258 -76.0261 204° Southwest 417 480 38,000  Level Washington Center
04:33PM 35.9381 -76.0667 201° Southwest 417 480 38,000  Level Washington Center
04:34PM 35.8083 -76.1300 202° Southwest 417 480 38,000  Level Washington Center
04:35PM 35.7017 -76.1881 204° Southwest 417 480 38,000  Level Washington Center
04:36PM 35.5931 -76.2433 202° Southwest 417 480 38,000  Level Washington Center
04:37PM 35.4864 -76.2961 202° Southwest 417 480 38,000  Level Washington Center
04:38PM 35.3775 -76.3511 202° Southwest 417 480 38,000  Level Washington Center
04:39PM 35.2686 -76.4086 203° Southwest 417 480 38,000  Level Washington Center
04:40PM 35.1575 -76.4583 200° South 417 480 38,000  Level Washington Center
04:41PM 35.0508 -76.5156 204° Southwest 417 480 38,000  Level Washington Center
04:42PM 34.9439 -76.5728 204° Southwest 417 480 38,000  Level Washington Center
04:43PM 34.8331 -76.6219 200° South 417 480 38,000  Level Washington Center
04:44PM 34.7261 -76.6814 205° Southwest 417 480 38,000  Level Washington Center
04:45PM 34.6150 -76.7303 200° South 417 480 38,000  Level Washington Center
04:46PM 34.5039 -76.7867 203° Southwest 417 480 38,000  Level Washington Center
04:47PM 34.4094 -76.8356 203° Southwest 417 480 38,000  Level Washington Center
04:48PM 34.2983 -76.8892 202° Southwest 422 486 38,000  Level Washington Center
04:49PM 34.1850 -76.9428 201° Southwest 427 491 38,000  Level Washington Center
04:50PM 34.0739 -76.9961 202° Southwest 433 498 38,000  Level Washington Center
04:51PM 33.9628 -77.0517 203° Southwest 433 498 38,000  Level Washington Center
04:54PM 33.6947 -77.1817 202° Southwest 430 495 38,000  Level Jacksonville Center
04:55PM 33.5842 -77.2311 200° South 430 495 38,000  Level Jacksonville Center
04:56PM 33.4719 -77.2856 202° Southwest 430 495 38,000  Level Jacksonville Center
04:57PM 33.3575 -77.3400 202° Southwest 430 495 38,000  Level Jacksonville Center
04:58PM 33.2472 -77.3942 202° Southwest 435 501 38,000  Level Jacksonville Center
04:59PM 33.1347 -77.4456 201° Southwest 435 501 38,000  Level Jacksonville Center
05:00PM 33.0222 -77.4994 202° Southwest 435 501 38,000  Level Jacksonville Center
05:01PM 32.9075 -77.5533 202° Southwest 441 507 38,000  Level Jacksonville Center
05:02PM 32.7931 -77.6072 202° Southwest 441 507 38,000  Level Jacksonville Center
05:03PM 32.6803 -77.6581 201° Southwest 441 507 38,000  Level Jacksonville Center
05:04PM 32.5678 -77.7139 203° Southwest 441 507 38,000  Level Jacksonville Center
05:05PM 32.4550 -77.7647 201° Southwest 441 507 38,000  Level Jacksonville Center
05:06PM 32.3403 -77.8178 201° Southwest 446 513 38,000  Level Jacksonville Center
05:07PM 32.2256 -77.8708 201° Southwest 446 513 38,000  Level Jacksonville Center
05:08PM 32.1131 -77.9286 204° Southwest 446 513 38,000  Level Jacksonville Center
05:09PM 31.9981 -77.9789 200° South 441 507 38,000  Level Jacksonville Center
05:10PM 31.8853 -78.0289 201° Southwest 441 507 38,000  Level Jacksonville Center
05:11PM 31.7706 -78.0839 202° Southwest 447 514 38,000  Level Jacksonville Center
05:12PM 31.6556 -78.1386 202° Southwest 447 514 38,000  Level Jacksonville Center
05:13PM 31.5406 -78.1883 200° South 441 507 38,000  Level Jacksonville Center
05:14PM 31.4278 -78.2428 202° Southwest 447 514 38,000  Level Jacksonville Center
05:15PM 31.3131 -78.2969 202° Southwest 447 514 38,000  Level Jacksonville Center
05:16PM 31.1958 -78.3489 201° Southwest 447 514 38,000  Level Jacksonville Center
05:17PM 31.0808 -78.4031 202° Southwest 447 514 38,000  Level Jacksonville Center
05:19PM 30.8083 -78.5214 200° South 439 505 38,000  Level Miami Center
05:20PM 30.6953 -78.5775 203° Southwest 444 511 38,000  Level Miami Center
05:21PM 30.5819 -78.6286 201° Southwest 444 511 38,000  Level Miami Center
05:22PM 30.4625 -78.6794 200° South 449 517 38,000  Level Miami Center
05:23PM 30.3453 -78.7303 201° Southwest 454 522 38,000  Level Miami Center
05:24PM 30.2258 -78.7811 200° South 454 522 38,000  Level Miami Center
05:25PM 30.1397 -78.8228 203° Southwest 445 512 38,000  Level Miami Center
05:26PM 30.0011 -78.8897 203° Southwest 440 506 38,000  Level Miami Center
05:27PM 29.8858 -78.9400 201° Southwest 445 512 38,000  Level Miami Center
05:28PM 29.7683 -78.9881 200° South 445 512 38,000  Level Miami Center
05:29PM 29.6528 -79.0358 200° South 451 519 38,000  Level Miami Center
05:30PM 29.5394 -79.0883 202° Southwest 445 512 38,000  Level Miami Center
05:31PM 29.4261 -79.1386 201° Southwest 445 512 38,000  Level Miami Center
05:37PM 28.7404 -79.4305 201° Southwest 445 512 38,000  Level FlightAware ADS-B (KMCO)
05:39PM 28.4685 -79.5469 201° Southwest 446 513 38,000  Level FlightAware ADS-B (KMCO)
05:40PM 28.3775 -79.5858 201° Southwest 446 513 38,000  Level FlightAware ADS-B (KMCO)
05:41PM 28.2947 -79.6210 201° Southwest 446 513 38,000  Level FlightAware ADS-B (KMCO)
05:41PM 28.2160 -79.6545 201° Southwest 446 513 38,000  Level FlightAware ADS-B (KMCO)
05:42PM 28.1419 -79.6860 201° Southwest 446 513 38,000  Level FlightAware ADS-B (KMCO)
05:43PM 28.0628 -79.7195 201° Southwest 446 513 38,000  Level FlightAware ADS-B (KMCO)
05:43PM 27.9815 -79.7539 200° South 445 512 38,000  Level FlightAware ADS-B (KMCO)
05:44PM 27.9061 -79.7858 201° Southwest 446 513 38,000  Level FlightAware ADS-B (KMCO)
05:45PM 27.8294 -79.8183 200° South 444 511 38,000  Level FlightAware ADS-B (KMCO)
05:45PM 27.7458 -79.8535 200° South 444 511 38,000  Level FlightAware ADS-B (KMCO)
05:46PM 27.6595 -79.8898 200° South 444 511 38,000  Level FlightAware ADS-B (KMCO)
05:47PM 27.5820 -79.9224 200° South 446 513 38,000  Level FlightAware ADS-B (KMCO)
05:48PM 27.4948 -79.9589 200° South 447 514 38,000  Level FlightAware ADS-B (KMCO)
05:49PM 27.3786 -80.0075 200° South 446 513 38,000  Level FlightAware ADS-B (KMCO)
05:49PM 27.3010 -80.0399 200° South 445 512 38,000  Level FlightAware ADS-B (KMCO)
05:50PM 27.2236 -80.0723 200° South 445 512 38,000  Level FlightAware ADS-B (KMCO)
05:51PM 27.1700 -80.0946 200° South 446 513 38,000  Level FlightAware ADS-B (KMCO)
05:51PM 27.0654 -80.1381 200° South 447 514 38,000  Level FlightAware ADS-B (KMCO)
05:52PM 27.0066 -80.1625 200° South 448 516 38,000  Level FlightAware ADS-B (KMCO)
05:53PM 26.8716 -80.2184 200° South 448 516 38,000  Level FlightAware ADS-B (KMCO)
05:57PM 26.3737 -80.5036 207° Southwest 443 510 38,000  Level FlightAware ADS-B (KMCO)
05:58PM 26.3090 -80.5601 218° Southwest 444 511 38,000  Level FlightAware ADS-B (KMCO)
05:59PM 26.2378 -80.6221 218° Southwest 442 509 38,000  Level FlightAware ADS-B (KMCO)
06:00PM 26.1575 -80.6967 218° Southwest 444 511 38,000  Level Miami Center
06:01PM 26.0611 -80.7792 218° Southwest 444 511 38,000  Level Miami Center
06:02PM 25.9650 -80.8639 218° Southwest 444 511 38,000  Level Miami Center
06:03PM 25.8667 -80.9481 218° Southwest 444 511 38,000  Level Miami Center
06:04PM 25.7703 -81.0303 218° Southwest 444 511 38,000  Level Miami Center
06:05PM 25.6739 -81.1144 218° Southwest 450 518 38,000  Level Miami Center
06:06PM 25.5753 -81.1961 217° Southwest 450 518 38,000 -120 Level Miami Center
06:07PM 25.4789 -81.2803 218° Southwest 450 518 37,800 -420 Descending Miami Center
06:08PM 25.3825 -81.3617 217° Southwest 450 518 37,200 -660 Descending Miami Center
06:09PM 25.2817 -81.4453 217° Southwest 456 525 36,500 -840 Descending Miami Center
06:10PM 25.1831 -81.5286 217° Southwest 456 525 35,600 -960 Descending Miami Center
06:11PM 25.0822 -81.6144 218° Southwest 456 525 34,600 -1,020 Descending Miami Center
06:12PM 24.9811 -81.6997 217° Southwest 456 525 33,600 -1,020 Descending Miami Center
06:13PM 24.8783 -81.7828 216° Southwest 456 525 32,600 -960 Descending Miami Center
06:14PM 24.7922 -81.8617 220° Southwest 445 512 31,700 -960 Descending Miami Center
06:15PM 24.6825 -81.9531 217° Southwest 450 518 30,700 -1,020 Descending Miami Center
06:16PM 24.5814 -82.0381 217° Southwest 455 524 29,700 -1,020 Descending Miami Center
06:17PM 24.4844 -82.1206 218° Southwest 455 524 28,700 -1,020 Descending Miami Center
06:18PM 24.3814 -82.2006 215° Southwest 455 524 27,700 -1,020 Descending Miami Center
06:19PM 24.2825 -82.2831 217° Southwest 450 518 26,700 -1,020 Descending Miami Center
06:20PM 24.1894 -82.3678 220° Southwest 450 518 25,700 -1,500 Descending Miami Center
06:21PM 24.0756 -82.4558 215° Southwest 459 528 23,700 -2,040 Descending Miami Center
06:23PM 23.8999 -82.4482 177° South  Level Estimated
06:30PM 23.1392 -82.4155 178° South  Level Estimated
06:31PM 23.0309 -82.4047 175° South  Level FlightAware Approximate
06:32PM 22.9891 -82.4091 180° South  Level Estimated
06:33PM 22.9891 -82.4091 180° South  Level Estimated
06:34PM 22.9891 -82.4091 180° South  Level Estimated
06:35PM 22.9891 -82.4091 180° South  Level Estimated
06:36PM 22.9891 -82.4091 180° South  Level Estimated
06:37PM 22.9891 -82.4091 180° South  Level Estimated
06:38PM 22.9891 -82.4091 180° South  Level Estimated
06:39PM 22.9891 -82.4091 180° South  Level Estimated
06:40PM 22.9891 -82.4091 180° South  Level Estimated
06:41PM 22.9891 -82.4091 180° South  Level Estimated
06:42PM 22.9891 -82.4091 180° South  Level Estimated
06:43PM 22.9891 -82.4091 180° South  Level Estimated
06:44PM 22.9891 -82.4091 180° South  Level Estimated
06:45PM 22.9891 -82.4091 180° South  Level Estimated
06:46PM 22.9891 -82.4091 180° South  Level Estimated
06:47PM 22.9891 -82.4091 180° South  Level Estimated
06:48PM 22.9891 -82.4091 180° South  Level Estimated
06:49PM 22.9891 -82.4091 180° South  Level Estimated
06:50PM 22.9891 -82.4091 180° South  Level Estimated